sensor_id;sensor_type;location;lat;lon;timestamp;pressure;altitude;pressure_sealevel;temperature;humidity
46944;BME280;32678;43.852;25.952;2023-04-07T00:03:15;100904.72;;;7.00;49.72
46944;BME280;32678;43.852;25.952;2023-04-07T00:08:12;100909.34;;;6.83;50.76
46944;BME280;32678;43.852;25.952;2023-04-07T00:13:08;100915.19;;;6.99;50.75
46944;BME280;32678;43.852;25.952;2023-04-07T00:18:05;100910.88;;;6.94;50.57
46944;BME280;32678;43.852;25.952;2023-04-07T00:23:03;100911.09;;;6.82;51.52
46944;BME280;32678;43.852;25.952;2023-04-07T00:28:02;100910.69;;;7.07;51.42
46944;BME280;32678;43.852;25.952;2023-04-07T00:32:59;100898.09;;;6.79;51.46
46944;BME280;32678;43.852;25.952;2023-04-07T00:37:56;100918.47;;;6.50;53.11
46944;BME280;32678;43.852;25.952;2023-04-07T00:42:53;100905.59;;;6.41;53.07
46944;BME280;32678;43.852;25.952;2023-04-07T00:47:50;100910.00;;;6.36;53.68
46944;BME280;32678;43.852;25.952;2023-04-07T00:52:47;100911.66;;;6.44;54.25
46944;BME280;32678;43.852;25.952;2023-04-07T00:57:44;100916.72;;;6.53;54.00
46944;BME280;32678;43.852;25.952;2023-04-07T01:02:43;100913.34;;;6.45;54.16
46944;BME280;32678;43.852;25.952;2023-04-07T01:07:47;100911.25;;;6.70;53.88
46944;BME280;32678;43.852;25.952;2023-04-07T01:12:47;100904.94;;;6.85;53.32
46944;BME280;32678;43.852;25.952;2023-04-07T01:17:52;100906.38;;;7.06;53.79
46944;BME280;32678;43.852;25.952;2023-04-07T01:22:52;100906.19;;;7.16;52.98
46944;BME280;32678;43.852;25.952;2023-04-07T01:27:54;100902.31;;;6.88;53.30
46944;BME280;32678;43.852;25.952;2023-04-07T01:32:55;100908.91;;;7.10;52.75
46944;BME280;32678;43.852;25.952;2023-04-07T01:37:53;100905.00;;;6.83;53.09
46944;BME280;32678;43.852;25.952;2023-04-07T01:42:51;100903.13;;;6.91;53.02
46944;BME280;32678;43.852;25.952;2023-04-07T01:47:47;100903.97;;;6.93;53.80
46944;BME280;32678;43.852;25.952;2023-04-07T01:52:45;100900.34;;;7.02;53.86
46944;BME280;32678;43.852;25.952;2023-04-07T01:57:42;100900.81;;;6.73;53.99
46944;BME280;32678;43.852;25.952;2023-04-07T02:02:46;100901.63;;;6.77;54.28
46944;BME280;32678;43.852;25.952;2023-04-07T02:07:47;100899.81;;;6.80;53.75
46944;BME280;32678;43.852;25.952;2023-04-07T02:12:45;100899.59;;;6.94;52.97
46944;BME280;32678;43.852;25.952;2023-04-07T02:17:46;100895.53;;;6.76;53.46
46944;BME280;32678;43.852;25.952;2023-04-07T02:22:44;100898.56;;;7.04;52.82
46944;BME280;32678;43.852;25.952;2023-04-07T02:27:41;100891.66;;;7.03;53.16
46944;BME280;32678;43.852;25.952;2023-04-07T02:32:38;100901.22;;;7.01;54.18
46944;BME280;32678;43.852;25.952;2023-04-07T02:37:35;100904.63;;;7.05;53.85
46944;BME280;32678;43.852;25.952;2023-04-07T02:42:31;100914.34;;;6.95;54.58
46944;BME280;32678;43.852;25.952;2023-04-07T02:47:29;100915.28;;;6.91;54.99
46944;BME280;32678;43.852;25.952;2023-04-07T02:52:26;100912.34;;;6.56;55.89
46944;BME280;32678;43.852;25.952;2023-04-07T02:57:22;100907.13;;;6.56;56.25
46944;BME280;32678;43.852;25.952;2023-04-07T03:02:23;100914.56;;;6.83;55.45
46944;BME280;32678;43.852;25.952;2023-04-07T03:07:20;100925.94;;;6.76;56.54
46944;BME280;32678;43.852;25.952;2023-04-07T03:12:20;100921.50;;;6.82;55.64
46944;BME280;32678;43.852;25.952;2023-04-07T03:17:17;100934.56;;;6.79;56.17
46944;BME280;32678;43.852;25.952;2023-04-07T03:22:14;100925.13;;;6.72;55.25
46944;BME280;32678;43.852;25.952;2023-04-07T03:27:17;100932.81;;;6.80;54.66
46944;BME280;32678;43.852;25.952;2023-04-07T03:32:17;100942.50;;;6.72;54.61
46944;BME280;32678;43.852;25.952;2023-04-07T03:37:14;100946.84;;;6.73;54.35
46944;BME280;32678;43.852;25.952;2023-04-07T03:42:11;100950.41;;;6.66;55.29
46944;BME280;32678;43.852;25.952;2023-04-07T03:47:09;100955.38;;;6.84;54.39
46944;BME280;32678;43.852;25.952;2023-04-07T03:52:07;100960.63;;;6.81;53.54
46944;BME280;32678;43.852;25.952;2023-04-07T03:57:03;100964.09;;;6.80;53.37
46944;BME280;32678;43.852;25.952;2023-04-07T04:02:05;100969.31;;;6.80;53.27
46944;BME280;32678;43.852;25.952;2023-04-07T04:07:03;100976.19;;;6.85;53.26
46944;BME280;32678;43.852;25.952;2023-04-07T04:12:16;100976.03;;;6.94;52.54
46944;BME280;32678;43.852;25.952;2023-04-07T04:17:24;100979.63;;;6.89;52.62
46944;BME280;32678;43.852;25.952;2023-04-07T04:22:23;100985.66;;;6.92;52.29
46944;BME280;32678;43.852;25.952;2023-04-07T04:27:23;100991.59;;;7.02;52.12
46944;BME280;32678;43.852;25.952;2023-04-07T04:32:26;100998.50;;;7.05;51.45
46944;BME280;32678;43.852;25.952;2023-04-07T04:37:24;101005.38;;;7.10;50.88
46944;BME280;32678;43.852;25.952;2023-04-07T04:42:21;101009.69;;;7.11;50.81
46944;BME280;32678;43.852;25.952;2023-04-07T04:47:19;101013.09;;;7.16;51.04
46944;BME280;32678;43.852;25.952;2023-04-07T04:52:16;101020.78;;;7.27;50.59
46944;BME280;32678;43.852;25.952;2023-04-07T04:57:16;101028.53;;;7.31;50.40
46944;BME280;32678;43.852;25.952;2023-04-07T05:02:13;101026.63;;;7.43;50.41
46944;BME280;32678;43.852;25.952;2023-04-07T05:07:10;101028.53;;;7.31;51.61
46944;BME280;32678;43.852;25.952;2023-04-07T05:12:07;101034.44;;;7.43;49.54
46944;BME280;32678;43.852;25.952;2023-04-07T05:17:11;101047.81;;;7.20;49.56
46944;BME280;32678;43.852;25.952;2023-04-07T05:22:08;101064.81;;;7.47;48.74
46944;BME280;32678;43.852;25.952;2023-04-07T05:27:15;101057.13;;;7.37;49.88
46944;BME280;32678;43.852;25.952;2023-04-07T05:32:17;101032.75;;;7.38;48.84
46944;BME280;32678;43.852;25.952;2023-04-07T05:37:14;101062.00;;;7.59;47.87
46944;BME280;32678;43.852;25.952;2023-04-07T05:42:18;101069.66;;;7.71;47.78
46944;BME280;32678;43.852;25.952;2023-04-07T05:47:19;101073.28;;;7.61;48.37
46944;BME280;32678;43.852;25.952;2023-04-07T05:52:18;101081.56;;;7.86;47.49
46944;BME280;32678;43.852;25.952;2023-04-07T05:57:22;101078.41;;;7.67;48.73
46944;BME280;32678;43.852;25.952;2023-04-07T06:02:21;101079.22;;;7.70;48.57
46944;BME280;32678;43.852;25.952;2023-04-07T06:07:19;101089.56;;;7.76;48.95
46944;BME280;32678;43.852;25.952;2023-04-07T06:12:16;101069.81;;;7.60;49.14
46944;BME280;32678;43.852;25.952;2023-04-07T06:17:13;101094.50;;;7.92;48.24
46944;BME280;32678;43.852;25.952;2023-04-07T06:22:11;101098.13;;;7.84;49.18
46944;BME280;32678;43.852;25.952;2023-04-07T06:27:08;101097.56;;;7.66;49.00
46944;BME280;32678;43.852;25.952;2023-04-07T06:32:05;101063.94;;;7.46;49.54
46944;BME280;32678;43.852;25.952;2023-04-07T06:37:05;101106.44;;;7.54;51.77
46944;BME280;32678;43.852;25.952;2023-04-07T06:42:27;101114.09;;;7.66;51.27
46944;BME280;32678;43.852;25.952;2023-04-07T07:37:59;101162.91;;;8.15;51.49
46944;BME280;32678;43.852;25.952;2023-04-07T07:43:41;101160.16;;;8.22;50.72
46944;BME280;32678;43.852;25.952;2023-04-07T08:28:38;101179.72;;;8.98;49.25
46944;BME280;32678;43.852;25.952;2023-04-07T08:41:26;101170.50;;;9.22;49.93
46944;BME280;32678;43.852;25.952;2023-04-07T08:47:24;101152.38;;;9.13;50.25
46944;BME280;32678;43.852;25.952;2023-04-07T08:52:22;101173.06;;;9.24;48.96
46944;BME280;32678;43.852;25.952;2023-04-07T08:57:32;101179.16;;;9.24;49.08
46944;BME280;32678;43.852;25.952;2023-04-07T09:02:33;101177.16;;;9.37;48.67
46944;BME280;32678;43.852;25.952;2023-04-07T09:07:30;101183.31;;;9.74;48.64
46944;BME280;32678;43.852;25.952;2023-04-07T09:12:32;101170.22;;;9.74;48.09
46944;BME280;32678;43.852;25.952;2023-04-07T09:17:29;101178.91;;;9.36;47.92
46944;BME280;32678;43.852;25.952;2023-04-07T09:22:37;101184.16;;;9.76;46.86
46944;BME280;32678;43.852;25.952;2023-04-07T09:27:34;101182.19;;;9.86;47.54
46944;BME280;32678;43.852;25.952;2023-04-07T09:32:34;101185.25;;;9.66;47.29
46944;BME280;32678;43.852;25.952;2023-04-07T09:37:33;101182.22;;;9.83;46.72
46944;BME280;32678;43.852;25.952;2023-04-07T09:42:31;101181.44;;;9.79;47.17
46944;BME280;32678;43.852;25.952;2023-04-07T09:47:33;101189.41;;;9.75;45.63
46944;BME280;32678;43.852;25.952;2023-04-07T09:57:43;101197.22;;;10.16;46.88
46944;BME280;32678;43.852;25.952;2023-04-07T10:02:42;101188.69;;;10.07;46.25
46944;BME280;32678;43.852;25.952;2023-04-07T10:07:39;101195.34;;;10.21;44.90
46944;BME280;32678;43.852;25.952;2023-04-07T10:12:39;101205.75;;;10.58;45.50
46944;BME280;32678;43.852;25.952;2023-04-07T10:17:37;101208.31;;;10.26;46.17
46944;BME280;32678;43.852;25.952;2023-04-07T10:22:36;101200.88;;;10.45;44.67
46944;BME280;32678;43.852;25.952;2023-04-07T10:27:36;101201.88;;;10.39;44.71
46944;BME280;32678;43.852;25.952;2023-04-07T10:32:45;101181.91;;;10.33;44.17
46944;BME280;32678;43.852;25.952;2023-04-07T10:43:10;101206.72;;;10.88;42.81
46944;BME280;32678;43.852;25.952;2023-04-07T10:48:13;101197.25;;;11.13;43.33
46944;BME280;32678;43.852;25.952;2023-04-07T10:59:12;101206.69;;;10.90;42.87
46944;BME280;32678;43.852;25.952;2023-04-07T11:04:25;101208.38;;;11.21;42.35
46944;BME280;32678;43.852;25.952;2023-04-07T11:09:32;101204.63;;;11.30;42.55
46944;BME280;32678;43.852;25.952;2023-04-07T11:14:45;101196.91;;;11.25;42.78
46944;BME280;32678;43.852;25.952;2023-04-07T11:19:52;101197.66;;;11.29;43.28
46944;BME280;32678;43.852;25.952;2023-04-07T11:24:49;101205.28;;;11.38;41.87
46944;BME280;32678;43.852;25.952;2023-04-07T11:29:46;101191.66;;;11.25;42.57
46944;BME280;32678;43.852;25.952;2023-04-07T11:34:43;101174.28;;;11.21;41.63
46944;BME280;32678;43.852;25.952;2023-04-07T11:39:41;101191.38;;;11.35;41.28
46944;BME280;32678;43.852;25.952;2023-04-07T11:44:43;101198.16;;;11.73;41.85
46944;BME280;32678;43.852;25.952;2023-04-07T11:49:43;101192.78;;;11.77;41.09
46944;BME280;32678;43.852;25.952;2023-04-07T11:54:40;101196.75;;;11.89;40.15
46944;BME280;32678;43.852;25.952;2023-04-07T11:59:38;101200.22;;;11.61;42.22
46944;BME280;32678;43.852;25.952;2023-04-07T12:04:35;101191.47;;;11.90;42.54
46944;BME280;32678;43.852;25.952;2023-04-07T12:09:33;101194.78;;;11.97;41.91
46944;BME280;32678;43.852;25.952;2023-04-07T12:14:31;101194.38;;;11.81;42.50
46944;BME280;32678;43.852;25.952;2023-04-07T12:19:28;101196.91;;;11.84;42.61
46944;BME280;32678;43.852;25.952;2023-04-07T12:24:27;101200.94;;;11.96;41.78
46944;BME280;32678;43.852;25.952;2023-04-07T12:29:38;101203.97;;;12.10;41.76
46944;BME280;32678;43.852;25.952;2023-04-07T12:34:36;101206.97;;;11.98;41.37
46944;BME280;32678;43.852;25.952;2023-04-07T12:39:33;101213.72;;;11.79;42.56
46944;BME280;32678;43.852;25.952;2023-04-07T12:44:31;101218.28;;;12.01;42.50
46944;BME280;32678;43.852;25.952;2023-04-07T12:49:31;101215.88;;;11.64;44.64
46944;BME280;32678;43.852;25.952;2023-04-07T12:54:28;101212.66;;;11.84;44.99
46944;BME280;32678;43.852;25.952;2023-04-07T12:59:27;101209.97;;;11.87;45.37
46944;BME280;32678;43.852;25.952;2023-04-07T13:04:31;101222.69;;;11.71;45.43
46944;BME280;32678;43.852;25.952;2023-04-07T13:09:29;101217.31;;;11.76;45.87
46944;BME280;32678;43.852;25.952;2023-04-07T13:14:25;101227.44;;;11.88;45.47
46944;BME280;32678;43.852;25.952;2023-04-07T13:19:22;101228.38;;;11.87;45.64
46944;BME280;32678;43.852;25.952;2023-04-07T13:24:19;101247.13;;;11.73;46.34
46944;BME280;32678;43.852;25.952;2023-04-07T13:29:17;101241.44;;;11.89;46.21
46944;BME280;32678;43.852;25.952;2023-04-07T13:34:14;101244.38;;;11.78;45.97
46944;BME280;32678;43.852;25.952;2023-04-07T13:39:10;101251.88;;;11.92;46.93
46944;BME280;32678;43.852;25.952;2023-04-07T13:44:08;101251.22;;;11.84;46.66
46944;BME280;32678;43.852;25.952;2023-04-07T13:49:17;101263.41;;;11.86;46.75
46944;BME280;32678;43.852;25.952;2023-04-07T13:54:14;101256.03;;;11.97;46.96
46944;BME280;32678;43.852;25.952;2023-04-07T13:59:11;101270.25;;;11.92;47.44
46944;BME280;32678;43.852;25.952;2023-04-07T14:04:09;101282.09;;;12.05;46.93
46944;BME280;32678;43.852;25.952;2023-04-07T14:09:05;101277.31;;;11.90;47.54
46944;BME280;32678;43.852;25.952;2023-04-07T14:14:03;101283.59;;;11.84;46.66
46944;BME280;32678;43.852;25.952;2023-04-07T14:19:00;101288.66;;;11.92;46.45
46944;BME280;32678;43.852;25.952;2023-04-07T14:29:42;101308.84;;;11.90;46.61
46944;BME280;32678;43.852;25.952;2023-04-07T14:34:39;101315.13;;;11.84;45.27
46944;BME280;32678;43.852;25.952;2023-04-07T14:39:36;101316.41;;;11.69;44.71
46944;BME280;32678;43.852;25.952;2023-04-07T14:44:33;101310.44;;;11.34;45.01
46944;BME280;32678;43.852;25.952;2023-04-07T14:49:31;101322.16;;;11.53;45.83
46944;BME280;32678;43.852;25.952;2023-04-07T14:54:28;101326.13;;;11.67;44.60
46944;BME280;32678;43.852;25.952;2023-04-07T14:59:28;101333.06;;;11.38;46.08
46944;BME280;32678;43.852;25.952;2023-04-07T15:05:11;101337.50;;;11.36;45.67
46944;BME280;32678;43.852;25.952;2023-04-07T15:10:11;101343.56;;;11.38;45.66
46944;BME280;32678;43.852;25.952;2023-04-07T15:15:08;101349.25;;;11.53;45.68
46944;BME280;32678;43.852;25.952;2023-04-07T15:20:05;101356.56;;;11.42;46.44
46944;BME280;32678;43.852;25.952;2023-04-07T15:25:03;101362.13;;;11.30;46.81
46944;BME280;32678;43.852;25.952;2023-04-07T15:30:00;101366.00;;;11.17;47.31
46944;BME280;32678;43.852;25.952;2023-04-07T15:35:07;101364.28;;;11.14;48.00
46944;BME280;32678;43.852;25.952;2023-04-07T15:40:05;101366.03;;;11.15;47.89
46944;BME280;32678;43.852;25.952;2023-04-07T15:45:02;101367.38;;;11.30;47.52
46944;BME280;32678;43.852;25.952;2023-04-07T15:49:59;101367.13;;;11.39;47.45
46944;BME280;32678;43.852;25.952;2023-04-07T15:54:56;101381.84;;;11.46;47.83
46944;BME280;32678;43.852;25.952;2023-04-07T15:59:54;101376.63;;;11.45;47.85
46944;BME280;32678;43.852;25.952;2023-04-07T16:04:52;101381.81;;;11.48;47.28
46944;BME280;32678;43.852;25.952;2023-04-07T16:09:49;101387.22;;;11.42;48.21
46944;BME280;32678;43.852;25.952;2023-04-07T16:14:45;101389.63;;;11.49;48.18
46944;BME280;32678;43.852;25.952;2023-04-07T16:19:43;101403.59;;;11.51;48.16
46944;BME280;32678;43.852;25.952;2023-04-07T16:24:43;101406.25;;;11.50;49.01
46944;BME280;32678;43.852;25.952;2023-04-07T16:29:41;101418.72;;;11.42;48.35
46944;BME280;32678;43.852;25.952;2023-04-07T16:34:39;101425.50;;;11.50;48.29
46944;BME280;32678;43.852;25.952;2023-04-07T16:39:37;101408.34;;;11.37;48.61
46944;BME280;32678;43.852;25.952;2023-04-07T16:44:33;101427.88;;;11.25;48.57
46944;BME280;32678;43.852;25.952;2023-04-07T16:49:32;101435.22;;;11.13;49.40
46944;BME280;32678;43.852;25.952;2023-04-07T16:54:28;101432.66;;;11.10;49.56
46944;BME280;32678;43.852;25.952;2023-04-07T16:59:29;101446.47;;;11.18;49.68
46944;BME280;32678;43.852;25.952;2023-04-07T17:04:25;101448.91;;;11.24;49.56
46944;BME280;32678;43.852;25.952;2023-04-07T17:09:22;101453.47;;;11.17;50.10
46944;BME280;32678;43.852;25.952;2023-04-07T17:14:19;101454.28;;;11.19;50.11
46944;BME280;32678;43.852;25.952;2023-04-07T17:19:17;101469.06;;;11.23;50.07
46944;BME280;32678;43.852;25.952;2023-04-07T17:24:15;101470.88;;;11.21;50.23
46944;BME280;32678;43.852;25.952;2023-04-07T17:29:12;101480.28;;;11.30;49.98
46944;BME280;32678;43.852;25.952;2023-04-07T17:34:19;101487.38;;;11.25;50.25
46944;BME280;32678;43.852;25.952;2023-04-07T17:39:56;101496.38;;;10.78;51.08
46944;BME280;32678;43.852;25.952;2023-04-07T17:44:53;101511.38;;;10.71;51.70
46944;BME280;32678;43.852;25.952;2023-04-07T17:49:50;101509.88;;;10.60;52.50
46944;BME280;32678;43.852;25.952;2023-04-07T17:54:47;101511.94;;;10.46;52.73
46944;BME280;32678;43.852;25.952;2023-04-07T17:59:46;101517.88;;;10.54;52.98
46944;BME280;32678;43.852;25.952;2023-04-07T18:04:43;101528.66;;;10.40;53.44
46944;BME280;32678;43.852;25.952;2023-04-07T18:09:40;101528.75;;;10.34;54.35
46944;BME280;32678;43.852;25.952;2023-04-07T18:14:38;101530.00;;;10.16;54.23
46944;BME280;32678;43.852;25.952;2023-04-07T18:19:40;101537.13;;;10.07;54.83
46944;BME280;32678;43.852;25.952;2023-04-07T18:24:37;101547.97;;;9.85;55.58
46944;BME280;32678;43.852;25.952;2023-04-07T18:29:36;101549.66;;;9.89;55.96
46944;BME280;32678;43.852;25.952;2023-04-07T18:34:33;101557.16;;;10.09;55.50
46944;BME280;32678;43.852;25.952;2023-04-07T18:39:30;101562.69;;;9.92;55.75
46944;BME280;32678;43.852;25.952;2023-04-07T18:44:27;101578.56;;;9.83;56.47
46944;BME280;32678;43.852;25.952;2023-04-07T18:49:24;101578.81;;;9.68;56.97
46944;BME280;32678;43.852;25.952;2023-04-07T18:54:24;101589.50;;;9.54;58.10
46944;BME280;32678;43.852;25.952;2023-04-07T18:59:23;101589.56;;;9.50;58.72
46944;BME280;32678;43.852;25.952;2023-04-07T19:04:20;101589.56;;;9.51;58.95
46944;BME280;32678;43.852;25.952;2023-04-07T19:09:19;101595.44;;;9.67;58.03
46944;BME280;32678;43.852;25.952;2023-04-07T19:14:16;101594.94;;;9.42;59.95
46944;BME280;32678;43.852;25.952;2023-04-07T19:19:13;101595.66;;;9.52;59.03
46944;BME280;32678;43.852;25.952;2023-04-07T19:24:11;101592.09;;;9.56;58.86
46944;BME280;32678;43.852;25.952;2023-04-07T19:29:08;101597.50;;;9.44;60.18
46944;BME280;32678;43.852;25.952;2023-04-07T19:34:07;101594.22;;;9.33;60.90
46944;BME280;32678;43.852;25.952;2023-04-07T19:39:04;101599.25;;;9.46;60.74
46944;BME280;32678;43.852;25.952;2023-04-07T19:44:01;101595.69;;;9.49;59.98
46944;BME280;32678;43.852;25.952;2023-04-07T19:48:57;101594.91;;;9.44;60.12
46944;BME280;32678;43.852;25.952;2023-04-07T19:53:55;101592.75;;;9.69;59.48
46944;BME280;32678;43.852;25.952;2023-04-07T19:58:53;101587.66;;;9.61;58.89
46944;BME280;32678;43.852;25.952;2023-04-07T20:03:51;101589.72;;;9.96;58.37
46944;BME280;32678;43.852;25.952;2023-04-07T20:08:50;101592.81;;;10.21;56.95
46944;BME280;32678;43.852;25.952;2023-04-07T20:13:49;101595.00;;;10.42;56.60
46944;BME280;32678;43.852;25.952;2023-04-07T20:18:47;101584.09;;;10.63;56.44
46944;BME280;32678;43.852;25.952;2023-04-07T20:23:44;101587.44;;;10.71;55.49
46944;BME280;32678;43.852;25.952;2023-04-07T20:28:41;101589.19;;;10.71;55.25
46944;BME280;32678;43.852;25.952;2023-04-07T20:33:37;101578.69;;;10.71;55.15
46944;BME280;32678;43.852;25.952;2023-04-07T20:38:35;101588.94;;;10.83;55.04
46944;BME280;32678;43.852;25.952;2023-04-07T20:43:31;101591.41;;;10.91;54.82
46944;BME280;32678;43.852;25.952;2023-04-07T20:48:28;101586.06;;;10.95;54.93
46944;BME280;32678;43.852;25.952;2023-04-07T20:53:25;101587.06;;;10.90;55.04
46944;BME280;32678;43.852;25.952;2023-04-07T20:58:23;101585.25;;;10.93;54.97
46944;BME280;32678;43.852;25.952;2023-04-07T21:03:20;101591.13;;;11.04;54.98
46944;BME280;32678;43.852;25.952;2023-04-07T21:08:17;101595.44;;;11.07;54.18
46944;BME280;32678;43.852;25.952;2023-04-07T21:13:16;101585.00;;;11.04;54.24
46944;BME280;32678;43.852;25.952;2023-04-07T21:18:15;101594.97;;;10.86;54.00
46944;BME280;32678;43.852;25.952;2023-04-07T21:23:14;101591.63;;;10.80;54.25
46944;BME280;32678;43.852;25.952;2023-04-07T21:28:11;101593.09;;;10.93;54.61
46944;BME280;32678;43.852;25.952;2023-04-07T21:33:08;101596.34;;;10.64;54.29
46944;BME280;32678;43.852;25.952;2023-04-07T21:38:05;101609.69;;;10.51;54.79
46944;BME280;32678;43.852;25.952;2023-04-07T21:43:05;101598.75;;;10.75;54.88
46944;BME280;32678;43.852;25.952;2023-04-07T21:48:02;101600.22;;;10.86;54.51
46944;BME280;32678;43.852;25.952;2023-04-07T21:52:59;101598.13;;;10.61;54.40
46944;BME280;32678;43.852;25.952;2023-04-07T21:57:56;101599.75;;;10.66;54.23
46944;BME280;32678;43.852;25.952;2023-04-07T22:02:53;101604.31;;;10.58;54.64
46944;BME280;32678;43.852;25.952;2023-04-07T22:07:50;101597.19;;;10.65;55.03
46944;BME280;32678;43.852;25.952;2023-04-07T22:12:47;101600.63;;;10.67;54.77
46944;BME280;32678;43.852;25.952;2023-04-07T22:17:44;101595.56;;;10.59;55.04
46944;BME280;32678;43.852;25.952;2023-04-07T22:22:41;101600.81;;;10.59;53.89
46944;BME280;32678;43.852;25.952;2023-04-07T22:27:38;101605.91;;;10.21;54.68
46944;BME280;32678;43.852;25.952;2023-04-07T22:32:37;101610.69;;;9.93;55.43
46944;BME280;32678;43.852;25.952;2023-04-07T22:37:34;101612.66;;;9.80;56.16
46944;BME280;32678;43.852;25.952;2023-04-07T22:42:31;101608.59;;;9.61;56.92
46944;BME280;32678;43.852;25.952;2023-04-07T22:47:28;101605.75;;;9.76;56.74
46944;BME280;32678;43.852;25.952;2023-04-07T22:52:25;101610.16;;;9.73;56.60
46944;BME280;32678;43.852;25.952;2023-04-07T22:57:25;101611.31;;;9.56;56.87
46944;BME280;32678;43.852;25.952;2023-04-07T23:02:22;101611.09;;;9.69;56.79
46944;BME280;32678;43.852;25.952;2023-04-07T23:07:24;101606.78;;;9.66;56.10
46944;BME280;32678;43.852;25.952;2023-04-07T23:12:21;101609.19;;;9.78;55.38
46944;BME280;32678;43.852;25.952;2023-04-07T23:17:18;101610.69;;;9.94;54.81
46944;BME280;32678;43.852;25.952;2023-04-07T23:22:14;101591.63;;;9.85;55.29
46944;BME280;32678;43.852;25.952;2023-04-07T23:27:11;101610.94;;;9.79;55.24
46944;BME280;32678;43.852;25.952;2023-04-07T23:32:10;101613.47;;;9.85;55.52
46944;BME280;32678;43.852;25.952;2023-04-07T23:37:10;101609.03;;;9.89;55.14
46944;BME280;32678;43.852;25.952;2023-04-07T23:42:06;101604.31;;;10.11;54.65
46944;BME280;32678;43.852;25.952;2023-04-07T23:47:03;101608.19;;;10.37;54.44
46944;BME280;32678;43.852;25.952;2023-04-07T23:52:04;101605.91;;;10.65;54.00
46944;BME280;32678;43.852;25.952;2023-04-07T23:57:01;101618.31;;;10.57;54.04
